createdAt,value
2023-04-13T00:02:11.693Z,9.94
2023-04-13T00:04:39.101Z,9.93
2023-04-13T00:07:06.058Z,9.93
2023-04-13T00:09:33.581Z,9.92
2023-04-13T00:12:00.850Z,9.94
2023-04-13T00:14:27.830Z,9.95
2023-04-13T00:16:54.953Z,9.99
2023-04-13T00:19:21.947Z,10.06
2023-04-13T00:21:48.974Z,10.08
2023-04-13T00:24:16.430Z,10.09
2023-04-13T00:26:43.342Z,10.10
2023-04-13T00:29:10.519Z,10.08
2023-04-13T00:31:38.352Z,10.08
2023-04-13T00:34:05.331Z,10.03
2023-04-13T00:36:32.300Z,10.03
2023-04-13T00:38:59.600Z,10.05
2023-04-13T00:41:27.297Z,10.08
2023-04-13T00:43:54.292Z,10.09
2023-04-13T00:46:21.671Z,10.05
2023-04-13T00:48:49.113Z,10.06
2023-04-13T00:51:16.553Z,10.10
2023-04-13T00:53:43.776Z,10.12
2023-04-13T00:56:11.286Z,10.08
2023-04-13T00:58:38.483Z,10.06
2023-04-13T01:01:05.658Z,10.06
2023-04-13T01:03:32.706Z,10.06
2023-04-13T01:06:00.015Z,10.05
2023-04-13T01:08:32.360Z,10.03
2023-04-13T01:10:59.593Z,10.05
2023-04-13T01:13:30.592Z,10.03
2023-04-13T01:16:02.660Z,9.98
2023-04-13T01:18:30.962Z,9.95
2023-04-13T01:20:58.504Z,9.97
2023-04-13T01:23:31.610Z,9.97
2023-04-13T01:26:00.535Z,9.95
2023-04-13T01:28:28.376Z,9.93
2023-04-13T01:30:55.853Z,9.92
2023-04-13T01:33:23.297Z,9.94
2023-04-13T01:35:51.576Z,9.97
2023-04-13T01:38:24.968Z,9.98
2023-04-13T01:40:52.203Z,10.01
2023-04-13T01:43:19.883Z,9.98
2023-04-13T01:45:50.292Z,10.04
2023-04-13T01:48:18.757Z,10.03
2023-04-13T01:50:48.939Z,10.02
2023-04-13T01:53:17.728Z,9.99
2023-04-13T01:55:45.263Z,9.95
2023-04-13T01:58:13.864Z,9.92
2023-04-13T02:00:41.576Z,9.94
2023-04-13T02:03:10.084Z,9.91
2023-04-13T02:05:37.290Z,9.92
2023-04-13T02:08:05.625Z,9.94
2023-04-13T02:10:34.075Z,9.89
2023-04-13T02:13:05.380Z,9.91
2023-04-13T02:15:36.026Z,9.86
2023-04-13T02:18:03.892Z,9.90
2023-04-13T02:20:33.904Z,9.88
2023-04-13T02:23:01.904Z,9.87
2023-04-13T02:25:28.841Z,9.86
2023-04-13T02:27:55.960Z,9.84
2023-04-13T02:30:22.878Z,9.83
2023-04-13T02:32:50.313Z,9.80
2023-04-13T02:35:17.709Z,9.79
2023-04-13T02:37:46.564Z,9.80
2023-04-13T02:40:13.730Z,9.80
2023-04-13T02:42:40.668Z,9.77
2023-04-13T02:45:08.496Z,9.76
2023-04-13T02:47:35.603Z,9.80
2023-04-13T02:50:02.586Z,9.80
2023-04-13T02:52:29.698Z,9.77
2023-04-13T02:54:57.312Z,9.75
2023-04-13T02:57:25.600Z,9.75
2023-04-13T02:59:52.593Z,9.75
2023-04-13T03:02:19.761Z,9.74
2023-04-13T03:04:47.835Z,9.73
2023-04-13T03:07:14.905Z,9.72
2023-04-13T03:09:42.078Z,9.73
2023-04-13T03:12:09.665Z,9.70
2023-04-13T03:14:37.276Z,9.66
2023-04-13T03:17:04.975Z,9.67
2023-04-13T03:19:32.345Z,9.64
2023-04-13T03:21:59.434Z,9.64
2023-04-13T03:24:27.909Z,9.66
2023-04-13T03:26:57.369Z,9.63
2023-04-13T03:29:24.841Z,9.62
2023-04-13T03:31:52.406Z,9.64
2023-04-13T03:34:21.635Z,9.63
2023-04-13T03:36:48.980Z,9.62
2023-04-13T03:39:15.922Z,9.60
2023-04-13T03:41:42.849Z,9.55
2023-04-13T03:44:10.400Z,9.52
2023-04-13T03:46:38.044Z,9.52
2023-04-13T03:49:07.191Z,9.51
2023-04-13T03:51:34.375Z,9.50
2023-04-13T03:54:01.654Z,9.49
2023-04-13T03:56:28.833Z,9.47
2023-04-13T03:58:56.091Z,9.48
2023-04-13T04:01:24.504Z,9.47
2023-04-13T04:03:52.274Z,9.45
2023-04-13T04:06:19.279Z,9.43
2023-04-13T04:08:49.979Z,9.41
2023-04-13T04:11:17.308Z,9.43
2023-04-13T04:13:44.292Z,9.43
2023-04-13T04:16:12.105Z,9.42
2023-04-13T04:18:39.189Z,9.39
2023-04-13T04:21:07.372Z,9.36
2023-04-13T04:23:38.183Z,9.36
2023-04-13T04:26:05.402Z,9.35
2023-04-13T04:28:38.788Z,9.35
2023-04-13T04:31:07.536Z,9.33
2023-04-13T04:33:34.571Z,9.33
2023-04-13T04:36:02.148Z,9.30
2023-04-13T04:38:30.804Z,9.29
2023-04-13T04:40:58.093Z,9.30
2023-04-13T04:43:27.585Z,9.30
2023-04-13T04:45:58.441Z,9.28
2023-04-13T04:48:27.430Z,9.24
2023-04-13T04:50:56.386Z,9.26
2023-04-13T04:53:23.434Z,9.25
2023-04-13T04:55:50.754Z,9.22
2023-04-13T04:58:19.114Z,9.21
2023-04-13T05:00:47.240Z,9.20
2023-04-13T05:03:14.259Z,9.21
2023-04-13T05:05:41.681Z,9.23
2023-04-13T05:08:09.113Z,9.25
2023-04-13T05:10:36.245Z,9.24
2023-04-13T05:13:03.428Z,9.21
2023-04-13T05:15:30.431Z,9.22
2023-04-13T05:17:57.799Z,9.18
2023-04-13T05:20:24.758Z,9.16
2023-04-13T05:22:51.813Z,9.16
2023-04-13T05:25:18.820Z,9.14
2023-04-13T05:27:45.975Z,9.12
2023-04-13T05:30:14.066Z,9.17
2023-04-13T05:32:41.049Z,9.16
2023-04-13T05:35:08.376Z,9.16
2023-04-13T05:37:35.530Z,9.18
2023-04-13T05:40:08.871Z,9.18
2023-04-13T05:42:36.459Z,9.18
2023-04-13T05:45:04.343Z,9.18
2023-04-13T05:47:31.363Z,9.18
2023-04-13T05:50:00.655Z,9.18
2023-04-13T05:52:27.589Z,9.18
2023-04-13T05:54:55.109Z,9.18
2023-04-13T05:57:22.300Z,9.22
2023-04-13T05:59:51.222Z,9.23
2023-04-13T06:02:18.257Z,9.27
2023-04-13T06:04:46.082Z,9.25
2023-04-13T06:07:16.865Z,9.27
2023-04-13T06:09:43.827Z,9.28
2023-04-13T06:12:10.757Z,9.29
2023-04-13T06:14:37.943Z,9.32
2023-04-13T06:17:05.077Z,9.38
2023-04-13T06:19:32.207Z,9.45
2023-04-13T06:21:59.935Z,9.52
2023-04-13T06:24:27.841Z,9.53
2023-04-13T06:26:54.860Z,9.53
2023-04-13T06:29:21.998Z,9.55
2023-04-13T06:31:48.936Z,9.61
2023-04-13T06:34:16.557Z,9.65
2023-04-13T06:36:43.571Z,9.66
2023-04-13T06:39:10.843Z,9.70
2023-04-13T06:41:38.355Z,9.74
2023-04-13T06:44:05.458Z,9.91
2023-04-13T06:46:32.436Z,10.18
2023-04-13T06:48:59.560Z,10.65
2023-04-13T06:51:27.530Z,11.19
2023-04-13T06:53:55.076Z,11.59
2023-04-13T06:56:22.149Z,11.68
2023-04-13T06:58:49.357Z,11.96
2023-04-13T07:01:16.797Z,12.66
2023-04-13T07:03:45.061Z,13.03
2023-04-13T07:06:12.268Z,13.21
2023-04-13T07:08:39.259Z,13.17
2023-04-13T07:11:06.476Z,13.17
2023-04-13T07:13:33.564Z,13.54
2023-04-13T07:16:00.601Z,13.90
2023-04-13T07:18:28.118Z,14.01
2023-04-13T07:20:55.355Z,13.75
2023-04-13T07:23:22.263Z,13.42
2023-04-13T07:25:49.289Z,13.46
2023-04-13T07:28:16.926Z,14.31
2023-04-13T07:30:44.500Z,15.21
2023-04-13T07:33:11.580Z,15.56
2023-04-13T07:35:38.881Z,15.23
2023-04-13T07:38:06.640Z,15.01
2023-04-13T07:40:33.972Z,15.34
2023-04-13T07:43:01.044Z,15.59
2023-04-13T07:45:34.465Z,16.21
2023-04-13T07:48:01.638Z,16.61
2023-04-13T07:50:29.025Z,16.74
2023-04-13T07:52:56.039Z,17.43
2023-04-13T07:55:23.161Z,17.84
2023-04-13T07:57:51.996Z,18.03
2023-04-13T08:00:20.897Z,17.63
2023-04-13T08:02:52.129Z,17.36
2023-04-13T08:05:19.558Z,17.17
2023-04-13T08:07:51.354Z,17.41
2023-04-13T08:10:18.477Z,17.61
2023-04-13T08:12:45.542Z,17.53
2023-04-13T08:15:13.073Z,17.61
2023-04-13T08:17:40.262Z,17.40
2023-04-13T08:20:08.687Z,16.85
2023-04-13T08:22:37.119Z,16.19
2023-04-13T08:25:05.946Z,15.54
2023-04-13T08:27:33.175Z,14.99
2023-04-13T08:30:02.684Z,14.55
2023-04-13T08:32:29.997Z,14.23
2023-04-13T08:34:57.236Z,14.04
2023-04-13T08:37:25.091Z,13.84
2023-04-13T08:39:56.795Z,13.69
2023-04-13T08:42:25.231Z,13.57
2023-04-13T08:44:58.206Z,13.50
2023-04-13T08:47:26.835Z,13.47
2023-04-13T08:49:56.698Z,13.40
2023-04-13T08:52:24.515Z,13.35
2023-04-13T08:54:52.003Z,13.29
2023-04-13T08:57:20.461Z,13.25
2023-04-13T08:59:48.654Z,13.23
2023-04-13T09:02:16.273Z,13.17
2023-04-13T09:04:45.435Z,13.12
2023-04-13T09:07:13.545Z,13.12
2023-04-13T09:09:43.517Z,13.16
2023-04-13T09:12:10.533Z,13.22
2023-04-13T09:14:38.948Z,13.27
2023-04-13T09:17:07.421Z,13.30
2023-04-13T09:19:38.215Z,13.44
2023-04-13T09:22:16.578Z,13.45
2023-04-13T09:24:43.772Z,13.51
2023-04-13T09:27:21.510Z,13.59
2023-04-13T09:29:49.138Z,13.70
2023-04-13T09:32:20.445Z,13.72
2023-04-13T09:34:58.062Z,13.75
2023-04-13T09:37:25.272Z,13.82
2023-04-13T09:39:53.016Z,13.82
2023-04-13T09:42:21.218Z,13.76
2023-04-13T09:44:57.629Z,13.75
2023-04-13T09:47:25.458Z,13.74
2023-04-13T09:49:52.923Z,13.82
2023-04-13T09:52:20.923Z,13.80
2023-04-13T09:54:51.912Z,13.81
2023-04-13T09:57:28.863Z,13.89
2023-04-13T09:59:57.171Z,13.94
2023-04-13T10:02:24.444Z,14.04
2023-04-13T10:04:52.166Z,14.03
2023-04-13T10:07:19.899Z,14.06
2023-04-13T10:09:47.065Z,14.06
2023-04-13T10:12:17.181Z,14.06
2023-04-13T10:14:46.399Z,14.02
2023-04-13T10:17:23.644Z,13.95
2023-04-13T10:19:52.074Z,13.92
2023-04-13T10:22:21.148Z,13.90
2023-04-13T10:24:48.240Z,13.92
2023-04-13T10:27:17.351Z,13.96
2023-04-13T10:29:44.750Z,14.00
2023-04-13T10:32:21.313Z,14.08
2023-04-13T10:34:48.381Z,14.20
2023-04-13T10:37:19.847Z,14.26
2023-04-13T10:39:47.386Z,14.27
2023-04-13T10:42:16.553Z,14.27
2023-04-13T10:44:45.786Z,14.27
2023-04-13T10:47:13.871Z,14.30
2023-04-13T10:49:42.271Z,14.33
2023-04-13T10:52:11.665Z,14.32
2023-04-13T10:54:39.640Z,14.34
2023-04-13T10:57:09.697Z,14.36
2023-04-13T10:59:53.078Z,14.32
2023-04-13T11:02:25.129Z,14.26
2023-04-13T11:04:53.128Z,14.20
2023-04-13T11:07:23.934Z,14.13
2023-04-13T11:09:51.973Z,14.16
2023-04-13T11:12:19.694Z,14.19
2023-04-13T11:14:47.259Z,14.26
2023-04-13T11:17:15.457Z,14.27
2023-04-13T11:19:52.831Z,14.32
2023-04-13T11:22:23.019Z,14.34
2023-04-13T11:24:51.384Z,14.32
2023-04-13T11:27:19.217Z,14.32
2023-04-13T11:29:46.441Z,14.36
2023-04-13T11:32:19.221Z,14.42
2023-04-13T11:34:47.806Z,14.49
2023-04-13T11:37:14.935Z,14.58
2023-04-13T11:39:44.278Z,14.60
2023-04-13T11:42:12.388Z,14.56
2023-04-13T11:44:40.264Z,14.59
2023-04-13T11:47:09.232Z,14.63
2023-04-13T11:49:36.572Z,14.60
2023-04-13T11:52:03.798Z,14.61
2023-04-13T11:54:31.147Z,14.67
2023-04-13T11:56:58.368Z,14.73
2023-04-13T11:59:25.851Z,14.79
2023-04-13T12:02:01.584Z,14.88
2023-04-13T12:04:37.461Z,14.87
2023-04-13T12:07:09.768Z,14.78
2023-04-13T12:15:15.320Z,14.70
2023-04-13T12:20:26.276Z,14.52
2023-04-13T12:23:00.274Z,14.47
2023-04-13T12:25:35.867Z,14.46
2023-04-13T12:28:03.848Z,14.54
2023-04-13T12:30:30.931Z,14.70
2023-04-13T12:32:57.997Z,14.73
2023-04-13T12:35:25.077Z,14.65
2023-04-13T12:37:52.906Z,14.64
2023-04-13T12:40:20.035Z,14.59
2023-04-13T12:42:47.647Z,14.55
2023-04-13T12:45:15.484Z,14.59
2023-04-13T12:47:43.113Z,14.56
2023-04-13T12:50:11.127Z,14.45
2023-04-13T12:52:39.517Z,14.39
2023-04-13T12:55:07.149Z,14.42
2023-04-13T12:57:34.144Z,14.48
2023-04-13T13:00:01.356Z,14.60
2023-04-13T13:02:31.475Z,14.69
2023-04-13T13:04:59.829Z,14.73
2023-04-13T13:07:28.960Z,14.72
2023-04-13T13:09:56.562Z,14.69
2023-04-13T13:12:24.848Z,14.70
2023-04-13T13:14:52.011Z,14.71
2023-04-13T13:17:19.335Z,14.78
2023-04-13T13:19:46.429Z,14.84
2023-04-13T13:22:13.467Z,14.91
2023-04-13T13:24:40.739Z,14.97
2023-04-13T13:29:37.716Z,15.09
2023-04-13T13:32:04.949Z,15.17
2023-04-13T13:34:32.152Z,15.23
2023-04-13T13:36:59.537Z,15.25
2023-04-13T13:39:26.591Z,15.30
2023-04-13T13:41:53.843Z,15.38
2023-04-13T13:44:20.970Z,15.48
2023-04-13T13:46:48.082Z,15.52
2023-04-13T13:49:15.148Z,15.55
2023-04-13T13:51:42.969Z,15.58
2023-04-13T13:54:09.923Z,15.63
2023-04-13T13:56:36.988Z,15.69
2023-04-13T13:59:04.198Z,15.70
2023-04-13T14:01:31.872Z,15.74
2023-04-13T14:03:59.771Z,15.82
2023-04-13T14:06:28.276Z,15.88
2023-04-13T14:08:56.461Z,15.98
2023-04-13T14:11:24.038Z,16.01
2023-04-13T14:13:51.448Z,15.97
2023-04-13T14:16:18.528Z,15.99
2023-04-13T14:18:46.960Z,16.00
2023-04-13T14:21:16.227Z,15.98
2023-04-13T14:23:43.404Z,15.98
2023-04-13T14:26:10.505Z,15.98
2023-04-13T14:28:37.605Z,16.02
2023-04-13T14:31:04.744Z,16.04
2023-04-13T14:33:32.163Z,16.00
2023-04-13T14:35:59.166Z,15.95
2023-04-13T14:38:26.234Z,15.87
2023-04-13T14:40:53.243Z,15.70
2023-04-13T14:43:20.279Z,15.60
2023-04-13T14:45:47.480Z,15.48
2023-04-13T14:48:14.565Z,15.39
2023-04-13T14:50:41.638Z,15.26
2023-04-13T14:53:09.846Z,15.16
2023-04-13T14:55:37.212Z,15.05
2023-04-13T14:58:05.821Z,15.02
2023-04-13T15:00:39.622Z,14.98
2023-04-13T15:03:08.410Z,14.96
2023-04-13T15:05:36.920Z,14.92
2023-04-13T15:08:06.806Z,14.90
2023-04-13T15:10:35.227Z,14.89
2023-04-13T15:13:03.592Z,14.87
2023-04-13T15:15:31.686Z,14.88
2023-04-13T15:18:01.826Z,14.92
2023-04-13T15:20:29.773Z,14.91
2023-04-13T15:22:57.419Z,14.90
2023-04-13T15:25:24.907Z,14.91
2023-04-13T15:27:52.689Z,15.00
2023-04-13T15:30:29.532Z,15.14
2023-04-13T15:32:57.589Z,15.24
2023-04-13T15:35:26.857Z,15.25
2023-04-13T15:37:57.452Z,15.24
2023-04-13T15:40:26.252Z,15.14
2023-04-13T15:42:53.373Z,15.07
2023-04-13T15:45:21.444Z,15.03
2023-04-13T15:47:48.420Z,14.95
2023-04-13T15:50:19.404Z,14.85
2023-04-13T15:52:46.639Z,14.87
2023-04-13T15:55:13.612Z,14.88
2023-04-13T15:57:40.546Z,14.85
2023-04-13T16:00:08.959Z,14.81
2023-04-13T16:02:36.927Z,14.78
2023-04-13T16:05:04.272Z,14.72
2023-04-13T16:07:31.343Z,14.67
2023-04-13T16:09:58.846Z,14.57
2023-04-13T16:12:31.731Z,14.44
2023-04-13T16:15:00.115Z,14.31
2023-04-13T16:17:37.258Z,14.22
2023-04-13T16:20:11.382Z,14.15
2023-04-13T16:22:38.315Z,14.12
2023-04-13T16:25:05.854Z,14.10
2023-04-13T16:27:32.971Z,14.17
2023-04-13T16:30:00.108Z,14.22
2023-04-13T16:32:27.574Z,14.23
2023-04-13T16:34:54.601Z,14.25
2023-04-13T16:37:22.154Z,14.31
2023-04-13T16:39:49.324Z,14.31
2023-04-13T16:42:17.881Z,14.32
2023-04-13T16:44:45.013Z,14.31
2023-04-13T16:47:12.028Z,14.31
2023-04-13T16:49:39.105Z,14.33
2023-04-13T16:52:06.182Z,14.32
2023-04-13T16:54:33.482Z,14.27
2023-04-13T16:57:00.548Z,14.27
2023-04-13T16:59:27.493Z,14.29
2023-04-13T17:01:55.060Z,14.28
2023-04-13T17:04:26.267Z,14.29
2023-04-13T17:06:59.874Z,14.28
2023-04-13T17:09:27.080Z,14.26
2023-04-13T17:11:54.890Z,14.27
2023-04-13T17:14:22.115Z,14.24
2023-04-13T17:16:49.063Z,14.24
2023-04-13T17:19:17.091Z,14.23
2023-04-13T17:21:44.139Z,14.16
2023-04-13T17:24:11.442Z,14.12
2023-04-13T17:26:38.508Z,14.13
2023-04-13T17:29:05.818Z,14.13
2023-04-13T17:31:33.079Z,14.13
2023-04-13T17:33:59.969Z,14.12
2023-04-13T17:36:27.791Z,14.07
2023-04-13T17:38:54.948Z,14.05
2023-04-13T17:41:21.973Z,14.00
2023-04-13T17:43:48.868Z,13.96
2023-04-13T17:46:16.187Z,13.89
2023-04-13T17:48:43.407Z,13.85
2023-04-13T17:51:11.849Z,13.77
2023-04-13T17:53:38.980Z,13.71
2023-04-13T17:56:06.036Z,13.69
2023-04-13T17:58:34.379Z,13.65
2023-04-13T18:01:06.955Z,13.63
2023-04-13T18:03:34.376Z,13.60
2023-04-13T18:06:01.880Z,13.59
2023-04-13T18:08:28.735Z,13.57
2023-04-13T18:10:56.710Z,13.55
2023-04-13T18:13:23.827Z,13.55
2023-04-13T18:15:51.036Z,13.50
2023-04-13T18:18:19.083Z,13.45
2023-04-13T18:20:45.998Z,13.38
2023-04-13T18:23:13.047Z,13.31
2023-04-13T18:25:40.013Z,13.26
2023-04-13T18:28:07.269Z,13.17
2023-04-13T18:30:34.254Z,13.11
2023-04-13T18:33:01.293Z,13.08
2023-04-13T18:35:28.545Z,13.07
2023-04-13T18:37:55.474Z,13.08
2023-04-13T18:40:22.552Z,13.03
2023-04-13T18:42:50.504Z,13.04
2023-04-13T18:45:17.723Z,13.04
2023-04-13T18:47:44.719Z,13.04
2023-04-13T18:50:12.132Z,13.03
2023-04-13T18:52:39.183Z,12.97
2023-04-13T18:55:06.445Z,12.94
2023-04-13T18:57:33.364Z,12.85
2023-04-13T19:00:00.334Z,12.77
2023-04-13T19:02:27.632Z,12.68
2023-04-13T19:04:54.721Z,12.58
2023-04-13T19:07:21.638Z,12.53
2023-04-13T19:09:48.580Z,12.47
2023-04-13T19:12:15.712Z,12.39
2023-04-13T19:14:42.631Z,12.29
2023-04-13T19:17:09.690Z,12.19
2023-04-13T19:19:37.202Z,12.14
2023-04-13T19:22:04.171Z,12.07
2023-04-13T19:24:31.218Z,12.02
2023-04-13T19:26:58.175Z,11.99
2023-04-13T19:29:30.417Z,11.96
2023-04-13T19:31:57.341Z,11.90
2023-04-13T19:34:24.261Z,11.86
2023-04-13T19:36:51.190Z,11.83
2023-04-13T19:39:18.183Z,11.78
2023-04-13T19:41:45.100Z,11.75
2023-04-13T19:44:14.324Z,11.68
2023-04-13T19:46:41.253Z,11.63
2023-04-13T19:49:08.567Z,11.57
2023-04-13T19:51:36.008Z,11.51
2023-04-13T19:54:03.281Z,11.47
2023-04-13T19:56:31.332Z,11.41
2023-04-13T19:58:58.241Z,11.40
2023-04-13T20:01:25.459Z,11.40
2023-04-13T20:03:52.829Z,11.37
2023-04-13T20:06:19.980Z,11.37
2023-04-13T20:08:47.404Z,11.32
2023-04-13T20:11:14.714Z,11.27
2023-04-13T20:13:41.684Z,11.22
2023-04-13T20:16:08.732Z,11.17
2023-04-13T20:18:35.700Z,11.13
2023-04-13T20:21:02.601Z,11.13
2023-04-13T20:23:31.728Z,11.11
2023-04-13T20:25:58.712Z,11.10
2023-04-13T20:28:25.732Z,11.09
2023-04-13T20:30:52.797Z,11.07
2023-04-13T20:33:19.946Z,11.05
2023-04-13T20:35:46.997Z,11.02
2023-04-13T20:38:14.401Z,10.98
2023-04-13T20:40:42.223Z,10.97
2023-04-13T20:43:11.416Z,10.97
2023-04-13T20:45:38.723Z,10.93
2023-04-13T20:50:36.950Z,10.90
2023-04-13T20:53:05.303Z,10.82
2023-04-13T20:55:32.876Z,10.78
2023-04-13T20:57:59.882Z,10.75
2023-04-13T21:00:28.335Z,10.69
2023-04-13T21:02:55.474Z,10.67
2023-04-13T21:05:22.566Z,10.64
2023-04-13T21:07:49.620Z,10.65
2023-04-13T21:10:17.954Z,10.64
2023-04-13T21:12:44.852Z,10.64
2023-04-13T21:15:11.997Z,10.58
2023-04-13T21:17:39.133Z,10.58
2023-04-13T21:20:09.349Z,10.56
2023-04-13T21:22:36.573Z,10.58
2023-04-13T21:25:04.410Z,10.56
2023-04-13T21:27:31.449Z,10.58
2023-04-13T21:29:58.920Z,10.58
2023-04-13T21:32:25.815Z,10.55
2023-04-13T21:34:54.604Z,10.56
2023-04-13T21:37:21.553Z,10.56
2023-04-13T21:39:48.463Z,10.55
2023-04-13T21:42:17.133Z,10.60
2023-04-13T21:44:44.050Z,10.59
2023-04-13T21:47:10.908Z,10.56
2023-04-13T21:49:37.746Z,10.50
2023-04-13T21:52:04.640Z,10.44
2023-04-13T21:54:31.599Z,10.42
2023-04-13T21:56:58.402Z,10.41
2023-04-13T21:59:27.687Z,10.40
2023-04-13T22:01:54.992Z,10.35
2023-04-13T22:04:22.410Z,10.27
2023-04-13T22:06:49.401Z,10.23
2023-04-13T22:09:16.503Z,10.20
2023-04-13T22:11:43.364Z,10.23
2023-04-13T22:14:10.273Z,10.24
2023-04-13T22:16:37.197Z,10.24
2023-04-13T22:19:04.152Z,10.22
2023-04-13T22:21:31.738Z,10.21
2023-04-13T22:23:58.632Z,10.19
2023-04-13T22:26:26.045Z,10.17
2023-04-13T22:28:52.948Z,10.12
2023-04-13T22:31:20.000Z,10.15
2023-04-13T22:33:46.871Z,10.15
2023-04-13T22:36:17.994Z,10.14
2023-04-13T22:38:44.793Z,10.08
2023-04-13T22:41:11.811Z,10.09
2023-04-13T22:43:38.679Z,10.12
2023-04-13T22:46:05.670Z,10.11
2023-04-13T22:48:32.593Z,10.12
2023-04-13T22:51:00.917Z,10.10
2023-04-13T22:53:27.931Z,10.10
2023-04-13T22:55:54.769Z,10.11
2023-04-13T22:58:21.882Z,10.10
2023-04-13T23:00:48.895Z,10.06
2023-04-13T23:03:16.031Z,10.05
2023-04-13T23:05:43.144Z,10.03
2023-04-13T23:08:10.020Z,10.04
2023-04-13T23:10:36.927Z,10.04
2023-04-13T23:13:04.943Z,10.02
2023-04-13T23:15:32.004Z,10.03
2023-04-13T23:17:58.827Z,10.07
2023-04-13T23:20:27.503Z,10.04
2023-04-13T23:22:56.841Z,10.02
2023-04-13T23:25:24.043Z,10.03
2023-04-13T23:27:50.879Z,10.04
2023-04-13T23:30:17.693Z,10.01
2023-04-13T23:32:44.570Z,10.03
2023-04-13T23:35:11.379Z,10.01
2023-04-13T23:37:38.163Z,9.98
2023-04-13T23:40:05.694Z,9.97
2023-04-13T23:42:32.512Z,9.94
2023-04-13T23:44:59.327Z,9.92
2023-04-13T23:47:26.256Z,9.96
2023-04-13T23:49:54.446Z,9.95
2023-04-13T23:52:21.376Z,9.96
2023-04-13T23:54:48.123Z,9.97
2023-04-13T23:57:14.976Z,9.93
2023-04-13T23:59:41.761Z,9.94
